Time;durP1;ratioP1;P1;durP2;ratioP2;P2;SDS_P1;SDS_P2;PMS_P1;PMS_P2;Temp;Humidity;BMP_temperature;BMP_pressure;BME280_temperature;BME280_humidity;BME280_pressure;Samples;Min_cycle;Max_cycle;Signal;HPM_P1;HPM_P2
2022/01/09 00:00:23;;;;;;;;;;;;;;;4.77;100.00;98804.84;4968640;28;20009;-74
2022/01/09 00:02:49;;;;;;;;;;;;;;;4.77;100.00;98807.41;4959657;28;19989;-74
2022/01/09 00:05:15;;;;;;;;;;;;;;;4.83;100.00;98817.69;4963405;28;19922;-73
2022/01/09 00:07:41;;;;;;;;;;;;;;;4.81;100.00;98827.00;4961240;28;20358;-73
2022/01/09 00:10:07;;;;;;;;;;;;;;;4.85;100.00;98835.53;4966877;28;19937;-73
2022/01/09 00:12:32;;;;;;;;;;;;;;;4.86;100.00;98841.53;4966612;28;19945;-73
2022/01/09 00:14:57;;;;;;;;;;;;;;;4.84;100.00;98859.28;4963228;28;19926;-75
2022/01/09 00:17:23;;;;;;;;;;;;;;;4.83;100.00;98862.69;4966436;28;19934;-73
2022/01/09 00:19:48;;;;;;;;;;;;;;;4.83;100.00;98863.53;4972314;28;19985;-74
2022/01/09 00:22:16;;;;;;;;;;;;;;;4.87;100.00;98889.06;4964124;28;19922;-74
2022/01/09 00:24:41;;;;;;;;;;;;;;;4.88;100.00;98898.44;4962384;28;20290;-75
2022/01/09 00:27:06;;;;;;;;;;;;;;;4.94;100.00;98885.81;4959909;28;19929;-75
2022/01/09 00:29:32;;;;;;;;;;;;;;;4.88;100.00;98906.91;4965559;28;20414;-74
2022/01/09 00:31:57;;;;;;;;;;;;;;;4.84;100.00;98916.16;4958989;28;19927;-75
2022/01/09 00:34:22;;;;;;;;;;;;;;;4.90;100.00;98924.78;4965728;28;19973;-74
2022/01/09 00:36:47;;;;;;;;;;;;;;;4.86;100.00;98921.31;4964669;28;19922;-74
2022/01/09 00:39:13;;;;;;;;;;;;;;;4.86;100.00;98945.94;4967710;28;19981;-75
2022/01/09 00:41:38;;;;;;;;;;;;;;;4.86;100.00;98928.09;4959957;28;19919;-74
2022/01/09 00:44:03;;;;;;;;;;;;;;;4.85;100.00;98947.59;4963513;28;20001;-74
2022/01/09 00:46:29;;;;;;;;;;;;;;;4.87;100.00;98950.19;4965575;28;19945;-74
2022/01/09 00:48:54;;;;;;;;;;;;;;;4.81;100.00;98967.06;4965113;28;19934;-74
2022/01/09 00:51:19;;;;;;;;;;;;;;;4.85;100.00;98967.97;4960481;28;19926;-74
2022/01/09 00:53:45;;;;;;;;;;;;;;;4.84;100.00;98964.56;4964777;28;19926;-74
2022/01/09 00:56:10;;;;;;;;;;;;;;;4.76;100.00;98977.97;4965935;28;20388;-74
2022/01/09 00:58:35;;;;;;;;;;;;;;;4.78;100.00;98986.50;4961831;28;20395;-74
2022/01/09 01:01:00;;;;;;;;;;;;;;;4.73;100.00;98988.97;4958536;28;19965;-75
2022/01/09 01:03:26;;;;;;;;;;;;;;;4.70;100.00;98993.13;4961443;28;19926;-74
2022/01/09 01:05:51;;;;;;;;;;;;;;;4.69;100.00;99016.88;4964644;28;20355;-75
2022/01/09 01:08:16;;;;;;;;;;;;;;;4.71;100.00;98993.16;4966030;28;20017;-74
2022/01/09 01:10:42;;;;;;;;;;;;;;;4.67;100.00;99003.22;4961941;28;19918;-75
2022/01/09 01:13:07;;;;;;;;;;;;;;;4.55;100.00;99017.44;4964805;28;19957;-76
2022/01/09 01:15:32;;;;;;;;;;;;;;;4.53;100.00;99023.28;4962331;28;20310;-76
2022/01/09 01:17:57;;;;;;;;;;;;;;;4.44;100.00;99030.72;4965685;28;19934;-76
2022/01/09 01:20:23;;;;;;;;;;;;;;;4.44;100.00;99051.94;4940018;28;19926;-77
2022/01/09 01:22:52;;;;;;;;;;;;;;;4.48;100.00;99042.69;4967474;28;19922;-76
2022/01/09 01:25:21;;;;;;;;;;;;;;;4.48;100.00;99051.16;4959144;28;19922;-74
2022/01/09 01:27:46;;;;;;;;;;;;;;;4.48;100.00;99048.63;4965549;28;19981;-73
2022/01/09 01:30:12;;;;;;;;;;;;;;;4.51;100.00;99063.97;4982431;28;19922;-75
2022/01/09 01:32:38;;;;;;;;;;;;;;;4.53;100.00;99062.31;4963243;28;19966;-76
2022/01/09 01:35:03;;;;;;;;;;;;;;;4.58;100.00;99076.03;4963100;28;20442;-76
2022/01/09 01:37:29;;;;;;;;;;;;;;;4.58;100.00;99076.03;4963507;28;19926;-76
2022/01/09 01:39:54;;;;;;;;;;;;;;;4.63;100.00;99083.78;4961381;28;19930;-76
2022/01/09 01:42:19;;;;;;;;;;;;;;;4.70;100.00;99078.00;4964154;28;19968;-76
2022/01/09 01:44:46;;;;;;;;;;;;;;;4.62;100.00;99094.78;4957618;28;19922;-76
2022/01/09 01:47:13;;;;;;;;;;;;;;;4.60;100.00;99088.78;4959468;28;19919;-76
2022/01/09 01:49:38;;;;;;;;;;;;;;;4.60;100.00;99100.66;4979210;28;19926;-76
2022/01/09 01:52:04;;;;;;;;;;;;;;;4.59;100.00;99102.34;4965329;28;20014;-76
2022/01/09 01:54:32;;;;;;;;;;;;;;;4.60;100.00;99116.78;4965175;28;19934;-76
2022/01/09 01:56:57;;;;;;;;;;;;;;;4.63;100.00;99121.97;4974796;28;19930;-75
2022/01/09 01:59:22;;;;;;;;;;;;;;;4.61;100.00;99132.91;4961137;28;19922;-75
2022/01/09 02:01:47;;;;;;;;;;;;;;;4.60;100.00;99132.06;4957791;28;20431;-76
2022/01/09 02:04:13;;;;;;;;;;;;;;;4.59;100.00;99137.97;4962557;28;19950;-76
2022/01/09 02:06:38;;;;;;;;;;;;;;;4.62;100.00;99145.69;4960479;28;19926;-76
2022/01/09 02:09:04;;;;;;;;;;;;;;;4.58;100.00;99157.47;4964414;28;20303;-75
2022/01/09 02:11:29;;;;;;;;;;;;;;;4.61;100.00;99161.81;4961996;28;19927;-76
2022/01/09 02:13:55;;;;;;;;;;;;;;;4.62;100.00;99171.16;4961729;28;19937;-75
2022/01/09 02:16:20;;;;;;;;;;;;;;;4.63;100.00;99175.41;4964381;28;20016;-75
2022/01/09 02:18:46;;;;;;;;;;;;;;;4.67;100.00;99177.22;4964399;28;19926;-74
2022/01/09 02:21:15;;;;;;;;;;;;;;;4.63;100.00;99185.59;4962842;28;19925;-76
2022/01/09 02:23:45;;;;;;;;;;;;;;;4.60;100.00;99193.16;4961002;28;19922;-76
2022/01/09 02:26:10;;;;;;;;;;;;;;;4.62;100.00;99204.25;4963453;28;19926;-76
2022/01/09 02:28:35;;;;;;;;;;;;;;;4.60;100.00;99208.44;4958290;28;19927;-75
2022/01/09 02:31:00;;;;;;;;;;;;;;;4.60;100.00;99208.44;4964854;28;20509;-75
2022/01/09 02:33:26;;;;;;;;;;;;;;;4.63;100.00;99223.78;4964710;28;19922;-75
2022/01/09 02:35:51;;;;;;;;;;;;;;;4.58;100.00;99218.56;4963196;28;20384;-76
2022/01/09 02:38:17;;;;;;;;;;;;;;;4.54;100.00;99216.75;4964024;28;19929;-75
2022/01/09 02:40:42;;;;;;;;;;;;;;;4.57;100.00;99227.03;4959892;28;19949;-76
2022/01/09 02:43:08;;;;;;;;;;;;;;;4.55;100.00;99221.06;4955508;28;20295;-77
2022/01/09 02:45:33;;;;;;;;;;;;;;;4.53;100.00;99234.56;4962123;28;19972;-76
2022/01/09 02:48:01;;;;;;;;;;;;;;;4.52;100.00;99232.84;4969155;28;19954;-76
2022/01/09 02:52:55;;;;;;;;;;;;;;;4.54;100.00;99261.72;4965132;28;19922;-76
2022/01/09 02:55:22;;;;;;;;;;;;;;;4.51;100.00;99259.13;4980166;28;19930;-76
2022/01/09 02:57:48;;;;;;;;;;;;;;;4.48;100.00;99267.50;4981555;28;19918;-76
2022/01/09 03:00:15;;;;;;;;;;;;;;;4.48;100.00;99276.84;4964026;28;19934;-75
2022/01/09 03:02:40;;;;;;;;;;;;;;;4.47;100.00;99275.13;4966587;28;19918;-76
2022/01/09 03:05:06;;;;;;;;;;;;;;;4.46;100.00;99268.31;4963229;28;20005;-75
2022/01/09 03:07:31;;;;;;;;;;;;;;;4.48;100.00;99281.94;4958566;28;20012;-76
2022/01/09 03:09:57;;;;;;;;;;;;;;;4.48;100.00;99290.41;4963497;28;19985;-75
2022/01/09 03:12:23;;;;;;;;;;;;;;;4.49;100.00;99293.81;4964768;28;20843;-76
2022/01/09 03:14:48;;;;;;;;;;;;;;;4.44;100.00;99305.59;4962427;28;20454;-76
2022/01/09 03:17:13;;;;;;;;;;;;;;;4.40;100.00;99311.41;4963312;28;19931;-75
2022/01/09 03:19:39;;;;;;;;;;;;;;;4.38;100.00;99319.00;4968365;28;20004;-75
2022/01/09 03:22:04;;;;;;;;;;;;;;;4.40;100.00;99335.16;4967750;28;19918;-76
2022/01/09 03:24:30;;;;;;;;;;;;;;;4.41;100.00;99336.88;4967175;28;19918;-76
2022/01/09 03:26:55;;;;;;;;;;;;;;;4.39;100.00;99335.13;4962601;28;20005;-75
2022/01/09 03:29:20;;;;;;;;;;;;;;;4.40;100.00;99345.34;4963152;28;19926;-76
2022/01/09 03:31:45;;;;;;;;;;;;;;;4.40;100.00;99354.66;4960049;28;19930;-76
2022/01/09 03:34:11;;;;;;;;;;;;;;;4.39;100.00;99351.25;4962176;28;19930;-76
2022/01/09 03:36:36;;;;;;;;;;;;;;;4.38;100.00;99362.25;4963206;28;19926;-76
2022/01/09 03:39:01;;;;;;;;;;;;;;;4.40;100.00;99368.25;4965198;28;19918;-75
2022/01/09 03:41:27;;;;;;;;;;;;;;;4.52;100.00;99353.31;4962653;28;20403;-75
2022/01/09 03:43:52;;;;;;;;;;;;;;;4.45;100.00;99381.13;4964912;28;20287;-75
2022/01/09 03:46:18;;;;;;;;;;;;;;;4.40;100.00;99386.06;4962589;28;19922;-75
2022/01/09 03:48:43;;;;;;;;;;;;;;;4.43;100.00;99382.72;4945465;28;19930;-75
2022/01/09 03:51:10;;;;;;;;;;;;;;;4.39;100.00;99396.22;4967436;28;19930;-75
2022/01/09 03:53:35;;;;;;;;;;;;;;;4.33;100.00;99401.97;4967605;28;19992;-76
2022/01/09 03:56:00;;;;;;;;;;;;;;;4.33;100.00;99408.75;4961278;28;19922;-77
2022/01/09 03:58:26;;;;;;;;;;;;;;;4.33;100.00;99409.63;4960543;28;19918;-76
2022/01/09 04:00:51;;;;;;;;;;;;;;;4.32;100.00;99422.31;4984002;28;19976;-76
2022/01/09 04:03:16;;;;;;;;;;;;;;;4.33;100.00;99432.53;4964420;28;20486;-76
2022/01/09 04:05:42;;;;;;;;;;;;;;;4.29;100.00;99434.09;4959612;28;20299;-76
2022/01/09 04:08:07;;;;;;;;;;;;;;;4.29;100.00;99434.09;4966912;28;19922;-76
2022/01/09 04:10:40;;;;;;;;;;;;;;;4.36;100.00;99436.81;4958383;28;19957;-76
2022/01/09 04:13:05;;;;;;;;;;;;;;;4.29;100.00;99445.97;4967911;28;20288;-76
2022/01/09 04:15:30;;;;;;;;;;;;;;;4.31;100.00;99451.97;4965489;28;19922;-76
2022/01/09 04:17:57;;;;;;;;;;;;;;;4.27;100.00;99466.28;4973713;28;20308;-75
2022/01/09 04:20:23;;;;;;;;;;;;;;;4.22;100.00;99462.72;4966968;28;20422;-76
2022/01/09 04:22:49;;;;;;;;;;;;;;;4.20;100.00;99483.84;4961335;28;20891;-76
2022/01/09 04:25:15;;;;;;;;;;;;;;;4.13;100.00;99485.34;4966663;28;19922;-76
2022/01/09 04:27:40;;;;;;;;;;;;;;;4.08;100.00;99494.50;4959844;28;19926;-76
2022/01/09 04:30:06;;;;;;;;;;;;;;;4.05;100.00;99494.41;4960185;28;19926;-76
2022/01/09 04:32:32;;;;;;;;;;;;;;;4.01;100.00;99490.03;4960816;28;19927;-76
2022/01/09 04:34:57;;;;;;;;;;;;;;;4.01;100.00;99508.72;4965480;28;19922;-75
2022/01/09 04:37:23;;;;;;;;;;;;;;;4.04;100.00;99513.03;4962289;28;20523;-75
2022/01/09 04:39:51;;;;;;;;;;;;;;;3.94;100.00;99508.44;4963399;28;19941;-75
2022/01/09 04:42:16;;;;;;;;;;;;;;;3.90;100.00;99514.25;4967903;28;19944;-75
2022/01/09 04:44:42;;;;;;;;;;;;;;;3.86;100.00;99520.03;4961497;28;19918;-74
2022/01/09 04:47:12;;;;;;;;;;;;;;;3.90;100.00;99521.88;4961713;28;19922;-75
2022/01/09 04:49:40;;;;;;;;;;;;;;;3.84;100.00;99536.94;4962165;28;19934;-75
2022/01/09 04:52:08;;;;;;;;;;;;;;;3.78;100.00;99537.59;4971332;28;19918;-75
2022/01/09 04:54:34;;;;;;;;;;;;;;;3.78;100.00;99539.28;4962906;28;19921;-75
2022/01/09 04:57:01;;;;;;;;;;;;;;;3.72;100.00;99550.97;4982361;28;19929;-76
2022/01/09 04:59:27;;;;;;;;;;;;;;;3.69;100.00;99558.47;4959998;28;19946;-76
2022/01/09 05:01:52;;;;;;;;;;;;;;;3.73;100.00;99562.84;4957404;28;19977;-76
2022/01/09 05:04:17;;;;;;;;;;;;;;;3.71;100.00;99567.03;4964480;28;20405;-75
2022/01/09 05:06:42;;;;;;;;;;;;;;;3.69;100.00;99577.94;4980100;28;19930;-75
2022/01/09 05:09:10;;;;;;;;;;;;;;;3.71;100.00;99584.81;4957287;28;19933;-75
2022/01/09 05:11:35;;;;;;;;;;;;;;;3.70;100.00;99588.19;4964895;28;19973;-75
2022/01/09 05:14:00;;;;;;;;;;;;;;;3.64;100.00;99594.72;4955853;28;19976;-75
2022/01/09 05:16:26;;;;;;;;;;;;;;;3.63;100.00;99598.94;4957753;28;19982;-75
2022/01/09 05:18:54;;;;;;;;;;;;;;;3.60;100.00;99611.53;4962826;28;19926;-75
2022/01/09 05:21:19;;;;;;;;;;;;;;;3.62;100.00;99612.44;4959903;28;21471;-75
2022/01/09 05:23:45;;;;;;;;;;;;;;;3.60;100.00;99613.22;4955947;28;19933;-75
2022/01/09 05:26:10;;;;;;;;;;;;;;;3.65;100.00;99637.13;4949355;28;19922;-75
2022/01/09 05:28:35;;;;;;;;;;;;;;;3.62;100.00;99630.25;4960999;28;20407;-75
2022/01/09 05:31:00;;;;;;;;;;;;;;;3.63;100.00;99642.13;4961310;28;19950;-75
2022/01/09 05:33:26;;;;;;;;;;;;;;;3.60;100.00;99641.19;4963392;28;19974;-75
2022/01/09 05:35:51;;;;;;;;;;;;;;;3.58;100.00;99648.75;4957365;28;19946;-75
2022/01/09 05:38:18;;;;;;;;;;;;;;;3.59;100.00;99642.00;4962074;28;19925;-75
2022/01/09 05:40:43;;;;;;;;;;;;;;;3.55;100.00;99646.09;4962900;28;20412;-75
2022/01/09 05:43:09;;;;;;;;;;;;;;;3.55;100.00;99647.78;4959033;28;20009;-75
2022/01/09 05:45:34;;;;;;;;;;;;;;;3.50;100.00;99661.16;4981466;28;19926;-75
2022/01/09 05:48:01;;;;;;;;;;;;;;;3.52;100.00;99662.91;4970447;28;20030;-75
2022/01/09 05:50:27;;;;;;;;;;;;;;;3.54;100.00;99664.69;4960173;28;19929;-75
2022/01/09 05:52:52;;;;;;;;;;;;;;;3.63;100.00;99670.09;4960332;28;20332;-75
2022/01/09 05:55:17;;;;;;;;;;;;;;;3.59;100.00;99680.13;4965718;28;20351;-77
2022/01/09 05:57:43;;;;;;;;;;;;;;;3.62;100.00;99673.47;4960621;28;20029;-75
2022/01/09 06:00:08;;;;;;;;;;;;;;;3.67;100.00;99677.03;4966301;28;19922;-74
2022/01/09 06:02:33;;;;;;;;;;;;;;;3.62;100.00;99665.84;4964583;28;19973;-74
2022/01/09 06:04:59;;;;;;;;;;;;;;;3.67;100.00;99678.72;4964770;28;20295;-75
2022/01/09 06:07:24;;;;;;;;;;;;;;;3.64;100.00;99686.22;4963757;28;19923;-75
2022/01/09 06:09:49;;;;;;;;;;;;;;;3.59;100.00;99692.84;4957722;28;19932;-75
2022/01/09 06:12:14;;;;;;;;;;;;;;;3.60;100.00;99699.66;4980635;28;20100;-74
2022/01/09 06:14:41;;;;;;;;;;;;;;;3.70;100.00;99702.59;4958746;28;20309;-74
2022/01/09 06:17:06;;;;;;;;;;;;;;;3.66;100.00;99693.09;4957596;28;20363;-74
2022/01/09 06:19:32;;;;;;;;;;;;;;;3.61;100.00;99703.91;4957471;28;20420;-74
2022/01/09 06:21:57;;;;;;;;;;;;;;;3.55;100.00;99707.09;4962215;28;19930;-74
2022/01/09 06:24:22;;;;;;;;;;;;;;;3.57;100.00;99713.09;4961596;28;19941;-74
2022/01/09 06:26:47;;;;;;;;;;;;;;;3.62;100.00;99715.81;4964283;28;19922;-74
2022/01/09 06:29:19;;;;;;;;;;;;;;;3.60;100.00;99720.84;4964775;28;19980;-74
2022/01/09 06:31:45;;;;;;;;;;;;;;;3.63;100.00;99726.03;4964159;28;19973;-74
2022/01/09 06:34:11;;;;;;;;;;;;;;;3.68;100.00;99738.91;4966995;28;19942;-74
2022/01/09 06:36:37;;;;;;;;;;;;;;;3.76;100.00;99740.06;4964009;28;19918;-74
2022/01/09 06:39:02;;;;;;;;;;;;;;;3.79;100.00;99734.25;4983290;28;19980;-74
2022/01/09 06:41:27;;;;;;;;;;;;;;;3.77;100.00;99746.91;4965034;28;19933;-74
2022/01/09 06:43:53;;;;;;;;;;;;;;;3.78;100.00;99755.41;4962596;28;20158;-74
2022/01/09 06:46:21;;;;;;;;;;;;;;;3.74;100.00;99754.41;4966792;28;19922;-75
2022/01/09 06:48:46;;;;;;;;;;;;;;;3.70;100.00;99760.16;4953605;28;19926;-74
2022/01/09 06:51:12;;;;;;;;;;;;;;;3.66;100.00;99765.97;4962905;28;20422;-74
2022/01/09 06:53:37;;;;;;;;;;;;;;;3.62;100.00;99767.50;4959415;28;19922;-75
2022/01/09 06:56:03;;;;;;;;;;;;;;;3.59;100.00;99777.59;4958373;28;20017;-75
2022/01/09 06:58:28;;;;;;;;;;;;;;;3.62;100.00;99772.59;4984465;28;20007;-75
2022/01/09 07:00:54;;;;;;;;;;;;;;;3.62;100.00;99779.34;4961140;28;19937;-75
2022/01/09 07:03:19;;;;;;;;;;;;;;;3.61;100.00;99777.63;4963546;28;19922;-75
2022/01/09 07:05:44;;;;;;;;;;;;;;;3.59;100.00;99785.22;4966005;28;19922;-74
2022/01/09 07:08:09;;;;;;;;;;;;;;;3.57;100.00;99789.34;4966724;28;20033;-75
2022/01/09 07:10:36;;;;;;;;;;;;;;;3.58;100.00;99792.75;4965702;28;19918;-74
2022/01/09 07:13:01;;;;;;;;;;;;;;;3.59;100.00;99795.38;4962169;28;20360;-74
2022/01/09 07:15:26;;;;;;;;;;;;;;;3.58;100.00;99805.47;4961892;28;20005;-75
2022/01/09 07:17:52;;;;;;;;;;;;;;;3.59;100.00;99803.00;4964036;28;19926;-74
2022/01/09 07:20:17;;;;;;;;;;;;;;;3.56;100.00;99807.09;4961445;28;19965;-74
2022/01/09 07:22:42;;;;;;;;;;;;;;;3.59;100.00;99814.84;4963420;28;20372;-75
2022/01/09 07:25:08;;;;;;;;;;;;;;;3.62;100.00;99820.03;4983245;28;19941;-76
2022/01/09 07:27:33;;;;;;;;;;;;;;;3.59;100.00;99813.16;4966762;28;19926;-75
2022/01/09 07:29:59;;;;;;;;;;;;;;;3.61;100.00;99824.25;4964159;28;19933;-76
2022/01/09 07:32:24;;;;;;;;;;;;;;;3.61;100.00;99825.94;4965992;28;20389;-75
2022/01/09 07:34:49;;;;;;;;;;;;;;;3.66;100.00;99820.22;4962944;28;19922;-75
2022/01/09 07:37:14;;;;;;;;;;;;;;;3.68;100.00;99826.22;4975243;28;19929;-75
2022/01/09 07:39:40;;;;;;;;;;;;;;;3.71;100.00;99833.97;4967749;28;19926;-74
2022/01/09 07:42:07;;;;;;;;;;;;;;;3.73;100.00;99832.34;4958978;28;19964;-75
2022/01/09 07:44:32;;;;;;;;;;;;;;;3.73;100.00;99842.53;4963549;28;19980;-74
2022/01/09 07:46:57;;;;;;;;;;;;;;;3.73;100.00;99849.28;4966211;28;19926;-75
2022/01/09 07:49:23;;;;;;;;;;;;;;;3.72;100.00;99850.09;4965816;28;19926;-75
2022/01/09 07:51:49;;;;;;;;;;;;;;;3.70;100.00;99857.69;4966786;28;20392;-75
2022/01/09 07:54:14;;;;;;;;;;;;;;;3.71;100.00;99848.38;4964594;28;19938;-76
2022/01/09 07:56:39;;;;;;;;;;;;;;;3.67;100.00;99857.53;4964278;28;20008;-74
2022/01/09 07:59:04;;;;;;;;;;;;;;;3.73;100.00;99862.00;4965495;28;19918;-75
2022/01/09 08:01:30;;;;;;;;;;;;;;;3.61;100.00;99867.47;4964176;28;19929;-75
2022/01/09 08:03:55;;;;;;;;;;;;;;;3.60;100.00;99867.41;4983761;28;19946;-75
2022/01/09 08:06:20;;;;;;;;;;;;;;;3.61;100.00;99872.56;4967342;28;19941;-76
2022/01/09 08:08:46;;;;;;;;;;;;;;;3.57;100.00;99880.00;4961154;28;20307;-75
2022/01/09 08:11:11;;;;;;;;;;;;;;;3.48;100.00;99890.66;4968631;28;19980;-75
2022/01/09 08:13:36;;;;;;;;;;;;;;;3.44;100.00;99888.78;4962174;28;19970;-75
2022/01/09 08:16:01;;;;;;;;;;;;;;;3.33;100.00;99892.56;4983118;28;19944;-75
2022/01/09 08:18:27;;;;;;;;;;;;;;;3.27;100.00;99895.72;4967260;28;19984;-75
2022/01/09 08:20:52;;;;;;;;;;;;;;;3.26;100.00;99903.28;4966418;28;19922;-74
2022/01/09 08:23:17;;;;;;;;;;;;;;;3.28;100.00;99911.84;4962230;28;19938;-75
2022/01/09 08:25:43;;;;;;;;;;;;;;;3.33;100.00;99915.44;4958554;28;20401;-74
2022/01/09 08:28:08;;;;;;;;;;;;;;;3.43;100.00;99917.56;4961396;28;19977;-75
2022/01/09 08:30:34;;;;;;;;;;;;;;;3.53;100.00;99912.06;4984113;28;19933;-75
2022/01/09 08:32:59;;;;;;;;;;;;;;;3.64;100.00;99913.38;4964756;28;19923;-75
2022/01/09 08:35:24;;;;;;;;;;;;;;;3.81;100.00;99921.66;4968752;28;20303;-74
2022/01/09 08:37:51;;;;;;;;;;;;;;;3.99;100.00;99918.97;4965481;28;19922;-75
2022/01/09 08:40:19;;;;;;;;;;;;;;;4.04;100.00;99922.56;4960703;28;19918;-75
2022/01/09 08:42:45;;;;;;;;;;;;;;;4.06;100.00;99926.00;4960020;28;20424;-75
2022/01/09 08:45:11;;;;;;;;;;;;;;;4.09;100.00;99938.00;4961396;28;19925;-75
2022/01/09 08:47:38;;;;;;;;;;;;;;;4.16;100.00;99935.75;4960770;28;20008;-75
2022/01/09 08:50:04;;;;;;;;;;;;;;;4.13;100.00;99935.66;4964047;28;19926;-75
2022/01/09 08:52:30;;;;;;;;;;;;;;;3.98;100.00;99940.13;4958281;28;20601;-74
2022/01/09 08:54:55;;;;;;;;;;;;;;;3.88;100.00;99943.09;4957369;28;20009;-74
2022/01/09 08:57:20;;;;;;;;;;;;;;;3.83;100.00;99949.69;4965532;28;19926;-74
2022/01/09 08:59:45;;;;;;;;;;;;;;;3.69;100.00;99955.06;4966129;28;19968;-74
2022/01/09 09:02:11;;;;;;;;;;;;;;;3.80;100.00;99958.06;4960682;28;20007;-74
2022/01/09 09:04:38;;;;;;;;;;;;;;;4.15;100.00;99966.22;4962782;28;20028;-74
2022/01/09 09:07:03;;;;;;;;;;;;;;;4.32;100.00;99967.75;4960122;28;19921;-74
2022/01/09 09:09:28;;;;;;;;;;;;;;;4.29;100.00;99968.50;4964484;28;19968;-75
2022/01/09 09:11:54;;;;;;;;;;;;;;;4.21;100.00;99974.09;4958191;28;19977;-75
2022/01/09 09:14:20;;;;;;;;;;;;;;;4.22;100.00;99979.25;4960004;28;19977;-76
2022/01/09 09:16:46;;;;;;;;;;;;;;;4.28;100.00;99991.34;4958667;28;19923;-75
2022/01/09 09:19:11;;;;;;;;;;;;;;;4.29;100.00;99982.91;4959240;28;20307;-75
2022/01/09 09:21:36;;;;;;;;;;;;;;;4.32;100.00;99994.88;4963906;28;20044;-74
2022/01/09 09:24:02;;;;;;;;;;;;;;;4.31;100.00;100001.66;4963215;28;19922;-74
2022/01/09 09:26:27;;;;;;;;;;;;;;;4.29;100.00;99995.63;4957413;28;20005;-74
2022/01/09 09:28:52;;;;;;;;;;;;;;;4.26;100.00;100006.56;4958751;28;19922;-75
2022/01/09 09:31:17;;;;;;;;;;;;;;;4.18;100.00;100004.50;4963166;28;19980;-75
2022/01/09 09:33:42;;;;;;;;;;;;;;;4.18;100.00;100005.38;4961427;28;19977;-75
2022/01/09 09:36:08;;;;;;;;;;;;;;;4.43;100.00;100008.88;4960736;28;20280;-75
2022/01/09 09:38:33;;;;;;;;;;;;;;;5.45;100.00;100012.66;4960794;28;19922;-75
2022/01/09 09:40:59;;;;;;;;;;;;;;;5.80;99.71;100011.31;4961402;28;19937;-75
2022/01/09 09:43:24;;;;;;;;;;;;;;;5.96;100.00;100020.41;4954723;28;20008;-75
2022/01/09 09:45:51;;;;;;;;;;;;;;;5.95;97.82;100020.34;4959668;28;20000;-75
2022/01/09 09:48:16;;;;;;;;;;;;;;;5.72;95.86;100020.41;4960318;28;19926;-74
2022/01/09 09:50:42;;;;;;;;;;;;;;;5.52;97.68;100021.38;4963011;28;19940;-75
2022/01/09 09:53:07;;;;;;;;;;;;;;;5.55;97.30;100040.22;4977492;28;19962;-76
2022/01/09 09:55:32;;;;;;;;;;;;;;;5.59;95.91;100036.13;4963109;28;20170;-75
2022/01/09 09:57:57;;;;;;;;;;;;;;;5.57;96.52;100028.38;4968361;28;20788;-74
2022/01/09 10:00:24;;;;;;;;;;;;;;;5.80;95.88;100030.84;4966435;28;19927;-75
2022/01/09 10:02:54;;;;;;;;;;;;;;;5.85;94.94;100042.97;4964805;28;19969;-74
2022/01/09 10:05:21;;;;;;;;;;;;;;;5.81;95.66;100038.56;4970256;28;19979;-74
2022/01/09 10:07:46;;;;;;;;;;;;;;;6.15;96.07;100038.03;4952848;28;19940;-74
2022/01/09 10:10:16;;;;;;;;;;;;;;;6.57;94.39;100050.44;4970661;28;19922;-74
2022/01/09 10:12:42;;;;;;;;;;;;;;;6.60;93.28;100047.97;4962657;28;19926;-74
2022/01/09 10:15:09;;;;;;;;;;;;;;;6.43;93.61;100057.69;4969301;28;20299;-74
2022/01/09 10:17:34;;;;;;;;;;;;;;;6.18;91.48;100050.03;4978754;28;20777;-74
2022/01/09 10:20:04;;;;;;;;;;;;;;;5.99;91.83;100052.78;4963735;28;20025;-73
2022/01/09 10:22:33;;;;;;;;;;;;;;;5.97;95.26;100052.75;4984254;28;19968;-74
2022/01/09 10:25:15;;;;;;;;;;;;;;;6.13;94.53;100057.56;4987716;28;19918;-74
2022/01/09 10:27:41;;;;;;;;;;;;;;;6.21;91.35;100057.78;4967132;28;19925;-74
2022/01/09 10:30:06;;;;;;;;;;;;;;;6.03;93.50;100067.41;4967773;28;19929;-73
2022/01/09 10:32:32;;;;;;;;;;;;;;;5.78;94.80;100068.22;4968440;28;19922;-72
2022/01/09 10:35:09;;;;;;;;;;;;;;;5.59;95.92;100067.59;4966641;28;20416;-73
2022/01/09 10:37:35;;;;;;;;;;;;;;;5.31;97.21;100077.59;4969909;28;19926;-72
2022/01/09 10:40:01;;;;;;;;;;;;;;;5.17;98.92;100071.13;4966203;28;19930;-72
2022/01/09 10:42:27;;;;;;;;;;;;;;;5.13;99.68;100075.25;4971259;28;19928;-73
2022/01/09 10:44:52;;;;;;;;;;;;;;;5.15;100.00;100078.69;4965775;28;19946;-71
2022/01/09 10:47:17;;;;;;;;;;;;;;;5.30;100.00;100074.19;4966925;28;19922;-72
2022/01/09 10:49:44;;;;;;;;;;;;;;;5.90;100.00;100078.84;4970025;28;19971;-72
2022/01/09 10:52:12;;;;;;;;;;;;;;;6.58;100.00;100076.84;4968067;28;19926;-72
2022/01/09 10:54:39;;;;;;;;;;;;;;;7.33;100.00;100077.38;4966476;28;19930;-73
2022/01/09 10:57:12;;;;;;;;;;;;;;;8.09;98.24;100082.84;4968857;28;19973;-73
2022/01/09 10:59:37;;;;;;;;;;;;;;;8.03;93.58;100083.56;4963284;28;19919;-72
2022/01/09 11:02:03;;;;;;;;;;;;;;;7.74;94.65;100086.22;4967104;28;20008;-72
2022/01/09 11:04:29;;;;;;;;;;;;;;;7.84;90.77;100078.78;4965570;28;20024;-72
2022/01/09 11:06:55;;;;;;;;;;;;;;;7.75;93.37;100087.94;4965703;28;20241;-74
2022/01/09 11:09:21;;;;;;;;;;;;;;;7.87;96.54;100083.97;4962764;28;19938;-73
2022/01/09 11:11:48;;;;;;;;;;;;;;;8.99;96.18;100092.72;4962912;28;19930;-73
2022/01/09 11:14:18;;;;;;;;;;;;;;;9.88;78.56;100085.97;4964056;28;19970;-73
2022/01/09 11:16:51;;;;;;;;;;;;;;;10.81;83.28;100083.25;4961502;28;19931;-73
2022/01/09 11:19:26;;;;;;;;;;;;;;;12.06;81.89;100085.66;4980590;28;19933;-72
2022/01/09 11:21:54;;;;;;;;;;;;;;;12.19;73.64;100096.94;4967476;28;20005;-73
2022/01/09 11:24:31;;;;;;;;;;;;;;;12.97;72.35;100094.09;4963063;28;20355;-73
2022/01/09 11:27:15;;;;;;;;;;;;;;;12.84;64.18;100094.03;4960386;28;19926;-75
2022/01/09 11:29:50;;;;;;;;;;;;;;;12.14;73.09;100102.94;4976581;28;19988;-72
2022/01/09 11:32:21;;;;;;;;;;;;;;;11.34;77.10;100111.41;4962328;28;19925;-73
2022/01/09 11:34:56;;;;;;;;;;;;;;;10.55;68.21;100105.97;4981105;28;19933;-71
2022/01/09 11:37:44;;;;;;;;;;;;;;;10.02;74.37;100111.91;4960126;28;19922;-72
2022/01/09 11:40:21;;;;;;;;;;;;;;;9.62;78.05;100112.84;4966258;28;19922;-73
2022/01/09 11:42:59;;;;;;;;;;;;;;;9.33;77.13;100107.97;4962636;28;19935;-73
2022/01/09 11:45:38;;;;;;;;;;;;;;;9.26;79.33;100123.22;4964376;28;19923;-72
2022/01/09 11:48:04;;;;;;;;;;;;;;;9.04;78.61;100125.34;4964166;28;20263;-72
2022/01/09 11:50:29;;;;;;;;;;;;;;;8.76;77.25;100131.50;4959416;28;20008;-72
2022/01/09 11:52:59;;;;;;;;;;;;;;;8.50;81.44;100127.47;4960185;28;19928;-73
2022/01/09 11:55:32;;;;;;;;;;;;;;;8.37;81.94;100126.28;4963214;28;20359;-73
2022/01/09 11:58:03;;;;;;;;;;;;;;;8.21;78.40;100126.69;4962199;28;19932;-73
2022/01/09 12:00:39;;;;;;;;;;;;;;;8.09;82.19;100121.25;4963341;28;19922;-73
2022/01/09 12:03:37;;;;;;;;;;;;;;;8.17;80.51;100128.31;4963735;28;19923;-73
2022/01/09 12:06:03;;;;;;;;;;;;;;;8.25;82.23;100134.50;4946147;28;19933;-72
2022/01/09 12:08:48;;;;;;;;;;;;;;;8.20;78.85;100137.78;4977274;28;19938;-72
2022/01/09 12:11:14;;;;;;;;;;;;;;;7.97;77.23;100137.16;4961641;28;19968;-73
2022/01/09 12:13:41;;;;;;;;;;;;;;;7.84;80.39;100137.66;4947438;28;19930;-72
2022/01/09 12:16:07;;;;;;;;;;;;;;;7.70;80.56;100135.56;4962684;28;20120;-73
2022/01/09 12:18:40;;;;;;;;;;;;;;;7.64;80.74;100143.06;4985801;28;20417;-73
2022/01/09 12:21:06;;;;;;;;;;;;;;;7.48;80.92;100141.78;4964672;28;19922;-73
2022/01/09 12:23:31;;;;;;;;;;;;;;;7.33;82.09;100146.44;4949968;28;19955;-73
2022/01/09 12:25:57;;;;;;;;;;;;;;;7.01;81.00;100144.59;4959723;28;19930;-73
2022/01/09 12:28:24;;;;;;;;;;;;;;;6.80;82.59;100152.50;4982012;28;19930;-72
2022/01/09 12:30:54;;;;;;;;;;;;;;;6.62;82.74;100156.19;4959718;28;19929;-73
2022/01/09 12:33:25;;;;;;;;;;;;;;;6.51;82.59;100157.50;4965466;28;19925;-73
2022/01/09 12:36:02;;;;;;;;;;;;;;;6.32;83.44;100161.16;4962483;28;20053;-73
2022/01/09 12:38:29;;;;;;;;;;;;;;;6.26;84.76;100170.28;4965517;28;20403;-72
2022/01/09 12:40:58;;;;;;;;;;;;;;;6.34;84.29;100169.72;4963945;28;20076;-73
2022/01/09 12:43:25;;;;;;;;;;;;;;;6.40;85.13;100169.06;4962358;28;19969;-75